sensor_id;sensor_type;location;lat;lon;timestamp;temperature;humidity
28193;DHT22;15473;50.840;3.396;2022-07-29T00:01:47;18.00;99.90
28193;DHT22;15473;50.840;3.396;2022-07-29T00:04:37;17.90;99.90
28193;DHT22;15473;50.840;3.396;2022-07-29T00:07:23;17.80;99.90
28193;DHT22;15473;50.840;3.396;2022-07-29T00:10:09;17.70;99.90
28193;DHT22;15473;50.840;3.396;2022-07-29T00:12:55;17.60;99.90
28193;DHT22;15473;50.840;3.396;2022-07-29T00:15:41;17.60;99.90
28193;DHT22;15473;50.840;3.396;2022-07-29T00:18:27;17.60;99.90
28193;DHT22;15473;50.840;3.396;2022-07-29T00:21:13;17.60;99.90
28193;DHT22;15473;50.840;3.396;2022-07-29T00:23:58;17.60;99.90
28193;DHT22;15473;50.840;3.396;2022-07-29T00:26:45;17.70;99.90
28193;DHT22;15473;50.840;3.396;2022-07-29T00:29:31;17.70;99.90
28193;DHT22;15473;50.840;3.396;2022-07-29T00:32:16;17.70;99.90
28193;DHT22;15473;50.840;3.396;2022-07-29T00:35:03;17.80;99.90
28193;DHT22;15473;50.840;3.396;2022-07-29T00:38:08;17.80;99.90
28193;DHT22;15473;50.840;3.396;2022-07-29T00:40:54;17.80;99.90
28193;DHT22;15473;50.840;3.396;2022-07-29T00:43:54;17.70;99.90
28193;DHT22;15473;50.840;3.396;2022-07-29T00:46:40;17.60;99.90
28193;DHT22;15473;50.840;3.396;2022-07-29T00:49:26;17.60;99.90
28193;DHT22;15473;50.840;3.396;2022-07-29T00:52:13;17.50;99.90
28193;DHT22;15473;50.840;3.396;2022-07-29T00:55:00;17.40;99.90
28193;DHT22;15473;50.840;3.396;2022-07-29T00:57:46;17.30;99.90
28193;DHT22;15473;50.840;3.396;2022-07-29T01:00:33;17.30;99.90
28193;DHT22;15473;50.840;3.396;2022-07-29T01:03:19;17.10;99.90
28193;DHT22;15473;50.840;3.396;2022-07-29T01:06:06;17.00;99.90
28193;DHT22;15473;50.840;3.396;2022-07-29T01:08:52;17.00;99.90
28193;DHT22;15473;50.840;3.396;2022-07-29T01:11:39;16.90;99.90
28193;DHT22;15473;50.840;3.396;2022-07-29T01:14:25;16.90;99.90
28193;DHT22;15473;50.840;3.396;2022-07-29T01:17:24;16.90;99.90
28193;DHT22;15473;50.840;3.396;2022-07-29T01:20:20;16.80;99.90
28193;DHT22;15473;50.840;3.396;2022-07-29T01:29:12;16.70;99.90
28193;DHT22;15473;50.840;3.396;2022-07-29T01:32:14;16.60;99.90
28193;DHT22;15473;50.840;3.396;2022-07-29T01:35:10;16.50;99.90
28193;DHT22;15473;50.840;3.396;2022-07-29T01:38:08;16.50;99.90
28193;DHT22;15473;50.840;3.396;2022-07-29T01:41:08;16.40;99.90
28193;DHT22;15473;50.840;3.396;2022-07-29T01:44:01;16.40;99.90
28193;DHT22;15473;50.840;3.396;2022-07-29T01:46:49;16.30;99.90
28193;DHT22;15473;50.840;3.396;2022-07-29T01:49:39;16.30;99.90
28193;DHT22;15473;50.840;3.396;2022-07-29T01:52:49;16.30;99.90
28193;DHT22;15473;50.840;3.396;2022-07-29T01:55:15;16.40;99.90
28193;DHT22;15473;50.840;3.396;2022-07-29T01:58:04;16.30;99.90
28193;DHT22;15473;50.840;3.396;2022-07-29T02:00:52;16.30;99.90
28193;DHT22;15473;50.840;3.396;2022-07-29T02:03:42;16.20;99.90
28193;DHT22;15473;50.840;3.396;2022-07-29T02:06:32;16.10;99.90
28193;DHT22;15473;50.840;3.396;2022-07-29T02:09:20;16.00;99.90
28193;DHT22;15473;50.840;3.396;2022-07-29T02:12:07;16.00;99.90
28193;DHT22;15473;50.840;3.396;2022-07-29T02:14:56;16.00;99.90
28193;DHT22;15473;50.840;3.396;2022-07-29T02:17:48;16.00;99.90
28193;DHT22;15473;50.840;3.396;2022-07-29T02:20:34;16.00;99.90
28193;DHT22;15473;50.840;3.396;2022-07-29T02:23:22;16.00;99.90
28193;DHT22;15473;50.840;3.396;2022-07-29T02:26:09;15.90;99.90
28193;DHT22;15473;50.840;3.396;2022-07-29T02:28:57;15.80;99.90
28193;DHT22;15473;50.840;3.396;2022-07-29T02:31:45;15.90;99.90
28193;DHT22;15473;50.840;3.396;2022-07-29T02:34:33;15.80;99.90
28193;DHT22;15473;50.840;3.396;2022-07-29T02:37:21;15.70;99.90
28193;DHT22;15473;50.840;3.396;2022-07-29T02:40:14;15.70;99.90
28193;DHT22;15473;50.840;3.396;2022-07-29T02:42:57;15.80;99.90
28193;DHT22;15473;50.840;3.396;2022-07-29T02:45:45;15.70;99.90
28193;DHT22;15473;50.840;3.396;2022-07-29T02:48:36;15.70;99.90
28193;DHT22;15473;50.840;3.396;2022-07-29T02:51:40;15.70;99.90
28193;DHT22;15473;50.840;3.396;2022-07-29T02:54:33;15.70;99.90
28193;DHT22;15473;50.840;3.396;2022-07-29T02:57:28;15.70;99.90
28193;DHT22;15473;50.840;3.396;2022-07-29T03:00:11;15.60;99.90
28193;DHT22;15473;50.840;3.396;2022-07-29T03:03:00;15.60;99.90
28193;DHT22;15473;50.840;3.396;2022-07-29T03:05:47;15.60;99.90
28193;DHT22;15473;50.840;3.396;2022-07-29T03:08:33;15.60;99.90
28193;DHT22;15473;50.840;3.396;2022-07-29T03:11:20;15.50;99.90
28193;DHT22;15473;50.840;3.396;2022-07-29T03:14:07;15.50;99.90
28193;DHT22;15473;50.840;3.396;2022-07-29T03:16:53;15.50;99.90
28193;DHT22;15473;50.840;3.396;2022-07-29T03:19:40;15.50;99.90
28193;DHT22;15473;50.840;3.396;2022-07-29T03:22:26;15.60;99.90
28193;DHT22;15473;50.840;3.396;2022-07-29T03:25:14;15.60;99.90
28193;DHT22;15473;50.840;3.396;2022-07-29T03:28:01;15.60;99.90
28193;DHT22;15473;50.840;3.396;2022-07-29T03:30:47;15.50;99.90
28193;DHT22;15473;50.840;3.396;2022-07-29T03:33:32;15.50;99.90
28193;DHT22;15473;50.840;3.396;2022-07-29T03:36:18;15.50;99.90
28193;DHT22;15473;50.840;3.396;2022-07-29T03:39:06;15.30;99.90
28193;DHT22;15473;50.840;3.396;2022-07-29T03:41:56;15.30;99.90
28193;DHT22;15473;50.840;3.396;2022-07-29T03:44:45;15.20;99.90
28193;DHT22;15473;50.840;3.396;2022-07-29T03:47:34;15.20;99.90
28193;DHT22;15473;50.840;3.396;2022-07-29T03:50:21;15.20;99.90
28193;DHT22;15473;50.840;3.396;2022-07-29T03:53:08;15.20;99.90
28193;DHT22;15473;50.840;3.396;2022-07-29T03:55:56;15.10;99.90
28193;DHT22;15473;50.840;3.396;2022-07-29T03:58:43;15.00;99.90
28193;DHT22;15473;50.840;3.396;2022-07-29T04:01:32;15.10;99.90
28193;DHT22;15473;50.840;3.396;2022-07-29T04:04:18;15.10;99.90
28193;DHT22;15473;50.840;3.396;2022-07-29T04:07:05;15.00;99.90
28193;DHT22;15473;50.840;3.396;2022-07-29T04:09:51;15.00;99.90
28193;DHT22;15473;50.840;3.396;2022-07-29T04:12:37;15.00;99.90
28193;DHT22;15473;50.840;3.396;2022-07-29T04:15:24;14.90;99.90
28193;DHT22;15473;50.840;3.396;2022-07-29T04:18:10;15.00;99.90
28193;DHT22;15473;50.840;3.396;2022-07-29T04:20:56;15.10;99.90
28193;DHT22;15473;50.840;3.396;2022-07-29T04:23:43;15.00;99.90
28193;DHT22;15473;50.840;3.396;2022-07-29T04:26:31;15.10;99.90
28193;DHT22;15473;50.840;3.396;2022-07-29T04:29:18;15.10;99.90
28193;DHT22;15473;50.840;3.396;2022-07-29T04:32:05;15.10;99.90
28193;DHT22;15473;50.840;3.396;2022-07-29T04:34:52;15.10;99.90
28193;DHT22;15473;50.840;3.396;2022-07-29T04:37:38;15.10;99.90
28193;DHT22;15473;50.840;3.396;2022-07-29T04:40:25;15.30;99.90
28193;DHT22;15473;50.840;3.396;2022-07-29T04:43:11;15.40;99.90
28193;DHT22;15473;50.840;3.396;2022-07-29T04:45:58;15.50;99.90
28193;DHT22;15473;50.840;3.396;2022-07-29T04:48:48;15.50;99.90
28193;DHT22;15473;50.840;3.396;2022-07-29T04:51:35;15.40;99.90
28193;DHT22;15473;50.840;3.396;2022-07-29T04:54:21;15.40;99.90
28193;DHT22;15473;50.840;3.396;2022-07-29T04:57:07;15.40;99.90
28193;DHT22;15473;50.840;3.396;2022-07-29T04:59:54;15.50;99.90
28193;DHT22;15473;50.840;3.396;2022-07-29T05:02:39;15.60;99.90
28193;DHT22;15473;50.840;3.396;2022-07-29T05:05:26;15.60;99.90
28193;DHT22;15473;50.840;3.396;2022-07-29T05:08:13;15.60;99.90
28193;DHT22;15473;50.840;3.396;2022-07-29T05:10:59;15.70;99.90
28193;DHT22;15473;50.840;3.396;2022-07-29T05:13:49;16.00;99.90
28193;DHT22;15473;50.840;3.396;2022-07-29T05:16:36;16.20;99.90
28193;DHT22;15473;50.840;3.396;2022-07-29T05:19:24;16.50;99.90
28193;DHT22;15473;50.840;3.396;2022-07-29T05:22:10;16.90;99.90
28193;DHT22;15473;50.840;3.396;2022-07-29T05:24:56;17.10;99.90
28193;DHT22;15473;50.840;3.396;2022-07-29T05:27:43;17.20;99.90
28193;DHT22;15473;50.840;3.396;2022-07-29T05:30:29;17.40;99.90
28193;DHT22;15473;50.840;3.396;2022-07-29T05:33:16;17.50;99.90
28193;DHT22;15473;50.840;3.396;2022-07-29T05:36:04;17.50;99.90
28193;DHT22;15473;50.840;3.396;2022-07-29T05:38:53;17.50;99.90
28193;DHT22;15473;50.840;3.396;2022-07-29T05:41:40;17.40;99.90
28193;DHT22;15473;50.840;3.396;2022-07-29T05:44:28;17.40;99.90
28193;DHT22;15473;50.840;3.396;2022-07-29T05:47:14;17.40;99.90
28193;DHT22;15473;50.840;3.396;2022-07-29T05:50:01;17.50;99.90
28193;DHT22;15473;50.840;3.396;2022-07-29T05:52:46;17.60;99.90
28193;DHT22;15473;50.840;3.396;2022-07-29T05:55:33;17.70;99.90
28193;DHT22;15473;50.840;3.396;2022-07-29T05:58:20;18.00;99.90
28193;DHT22;15473;50.840;3.396;2022-07-29T06:01:06;18.20;99.90
28193;DHT22;15473;50.840;3.396;2022-07-29T06:03:52;18.40;99.90
28193;DHT22;15473;50.840;3.396;2022-07-29T06:06:39;18.60;99.90
28193;DHT22;15473;50.840;3.396;2022-07-29T06:09:25;18.70;99.90
28193;DHT22;15473;50.840;3.396;2022-07-29T06:12:11;18.90;99.90
28193;DHT22;15473;50.840;3.396;2022-07-29T06:15:00;19.00;99.90
28193;DHT22;15473;50.840;3.396;2022-07-29T06:17:46;19.00;99.90
28193;DHT22;15473;50.840;3.396;2022-07-29T06:20:33;19.00;99.90
28193;DHT22;15473;50.840;3.396;2022-07-29T06:23:20;19.20;99.90
28193;DHT22;15473;50.840;3.396;2022-07-29T06:26:07;19.40;99.90
28193;DHT22;15473;50.840;3.396;2022-07-29T06:28:54;20.70;99.90
28193;DHT22;15473;50.840;3.396;2022-07-29T06:31:40;22.40;99.90
28193;DHT22;15473;50.840;3.396;2022-07-29T06:34:26;23.40;99.90
28193;DHT22;15473;50.840;3.396;2022-07-29T06:37:13;26.50;99.90
28193;DHT22;15473;50.840;3.396;2022-07-29T06:40:01;28.50;99.80
28193;DHT22;15473;50.840;3.396;2022-07-29T06:43:05;30.30;96.10
28193;DHT22;15473;50.840;3.396;2022-07-29T06:45:52;32.00;94.10
28193;DHT22;15473;50.840;3.396;2022-07-29T06:48:39;32.20;92.80
28193;DHT22;15473;50.840;3.396;2022-07-29T06:51:27;29.50;93.80
28193;DHT22;15473;50.840;3.396;2022-07-29T06:54:13;28.30;95.90
28193;DHT22;15473;50.840;3.396;2022-07-29T06:56:59;30.70;93.80
28193;DHT22;15473;50.840;3.396;2022-07-29T06:59:45;31.20;92.60
28193;DHT22;15473;50.840;3.396;2022-07-29T07:02:33;31.40;92.80
28193;DHT22;15473;50.840;3.396;2022-07-29T07:05:19;31.50;91.70
28193;DHT22;15473;50.840;3.396;2022-07-29T07:08:06;29.80;93.10
28193;DHT22;15473;50.840;3.396;2022-07-29T07:10:53;27.80;94.80
28193;DHT22;15473;50.840;3.396;2022-07-29T07:13:40;25.90;96.80
28193;DHT22;15473;50.840;3.396;2022-07-29T07:16:26;24.90;98.30
28193;DHT22;15473;50.840;3.396;2022-07-29T07:19:15;24.30;99.00
28193;DHT22;15473;50.840;3.396;2022-07-29T07:22:01;23.60;99.90
28193;DHT22;15473;50.840;3.396;2022-07-29T07:24:47;23.40;99.90
28193;DHT22;15473;50.840;3.396;2022-07-29T07:27:34;24.10;99.90
28193;DHT22;15473;50.840;3.396;2022-07-29T07:30:20;25.30;99.00
28193;DHT22;15473;50.840;3.396;2022-07-29T07:33:07;26.40;98.40
28193;DHT22;15473;50.840;3.396;2022-07-29T07:35:59;28.00;96.00
28193;DHT22;15473;50.840;3.396;2022-07-29T07:38:46;29.40;94.30
28193;DHT22;15473;50.840;3.396;2022-07-29T07:41:33;32.90;92.40
28193;DHT22;15473;50.840;3.396;2022-07-29T07:44:19;35.60;88.30
28193;DHT22;15473;50.840;3.396;2022-07-29T07:47:05;36.40;84.90
28193;DHT22;15473;50.840;3.396;2022-07-29T07:49:52;37.40;82.30
28193;DHT22;15473;50.840;3.396;2022-07-29T07:52:53;38.90;79.80
28193;DHT22;15473;50.840;3.396;2022-07-29T07:55:42;39.50;77.00
28193;DHT22;15473;50.840;3.396;2022-07-29T07:58:29;39.60;75.80
28193;DHT22;15473;50.840;3.396;2022-07-29T08:01:15;36.90;79.30
28193;DHT22;15473;50.840;3.396;2022-07-29T08:04:02;33.00;85.30
28193;DHT22;15473;50.840;3.396;2022-07-29T08:06:49;29.70;90.10
28193;DHT22;15473;50.840;3.396;2022-07-29T08:09:36;27.60;92.20
28193;DHT22;15473;50.840;3.396;2022-07-29T08:12:22;26.00;94.90
28193;DHT22;15473;50.840;3.396;2022-07-29T08:15:09;25.10;95.60
28193;DHT22;15473;50.840;3.396;2022-07-29T08:17:55;24.50;96.50
28193;DHT22;15473;50.840;3.396;2022-07-29T08:20:42;24.10;97.80
28193;DHT22;15473;50.840;3.396;2022-07-29T08:23:28;23.80;97.60
28193;DHT22;15473;50.840;3.396;2022-07-29T08:26:16;23.60;98.20
28193;DHT22;15473;50.840;3.396;2022-07-29T08:29:02;23.30;98.90
28193;DHT22;15473;50.840;3.396;2022-07-29T08:31:48;23.40;99.30
28193;DHT22;15473;50.840;3.396;2022-07-29T08:34:35;23.40;98.80
28193;DHT22;15473;50.840;3.396;2022-07-29T08:37:22;23.40;99.60
28193;DHT22;15473;50.840;3.396;2022-07-29T08:40:09;23.50;99.80
28193;DHT22;15473;50.840;3.396;2022-07-29T08:42:55;23.30;99.40
28193;DHT22;15473;50.840;3.396;2022-07-29T08:45:44;23.40;99.50
28193;DHT22;15473;50.840;3.396;2022-07-29T08:48:31;23.40;99.50
28193;DHT22;15473;50.840;3.396;2022-07-29T08:51:19;23.50;99.30
28193;DHT22;15473;50.840;3.396;2022-07-29T08:54:08;23.60;99.40
28193;DHT22;15473;50.840;3.396;2022-07-29T08:56:56;23.40;98.00
28193;DHT22;15473;50.840;3.396;2022-07-29T08:59:43;23.30;99.10
28193;DHT22;15473;50.840;3.396;2022-07-29T09:02:40;23.30;99.90
28193;DHT22;15473;50.840;3.396;2022-07-29T09:05:20;23.50;99.20
28193;DHT22;15473;50.840;3.396;2022-07-29T09:08:06;23.70;98.70
28193;DHT22;15473;50.840;3.396;2022-07-29T09:10:53;23.80;98.20
28193;DHT22;15473;50.840;3.396;2022-07-29T09:13:42;23.80;98.70
28193;DHT22;15473;50.840;3.396;2022-07-29T09:16:49;24.00;97.40
28193;DHT22;15473;50.840;3.396;2022-07-29T09:19:37;23.90;97.50
28193;DHT22;15473;50.840;3.396;2022-07-29T09:22:29;23.90;97.80
28193;DHT22;15473;50.840;3.396;2022-07-29T09:28:23;23.90;98.30
28193;DHT22;15473;50.840;3.396;2022-07-29T09:31:10;23.90;98.10
28193;DHT22;15473;50.840;3.396;2022-07-29T09:33:57;24.10;98.10
28193;DHT22;15473;50.840;3.396;2022-07-29T09:36:47;24.20;98.60
28193;DHT22;15473;50.840;3.396;2022-07-29T09:42:46;24.20;97.90
28193;DHT22;15473;50.840;3.396;2022-07-29T09:45:33;24.00;97.30
28193;DHT22;15473;50.840;3.396;2022-07-29T09:48:22;23.80;98.10
28193;DHT22;15473;50.840;3.396;2022-07-29T09:51:19;23.70;98.00
28193;DHT22;15473;50.840;3.396;2022-07-29T09:54:23;23.70;97.70
28193;DHT22;15473;50.840;3.396;2022-07-29T09:57:21;23.50;97.90
28193;DHT22;15473;50.840;3.396;2022-07-29T10:00:11;23.40;97.80
28193;DHT22;15473;50.840;3.396;2022-07-29T10:03:00;23.40;97.70
28193;DHT22;15473;50.840;3.396;2022-07-29T10:06:08;23.40;98.10
28193;DHT22;15473;50.840;3.396;2022-07-29T10:08:54;23.50;96.50
28193;DHT22;15473;50.840;3.396;2022-07-29T10:11:40;23.60;97.50
28193;DHT22;15473;50.840;3.396;2022-07-29T10:14:26;23.70;97.50
28193;DHT22;15473;50.840;3.396;2022-07-29T10:17:13;23.90;97.20
28193;DHT22;15473;50.840;3.396;2022-07-29T10:19:59;24.00;97.10
28193;DHT22;15473;50.840;3.396;2022-07-29T10:22:47;24.00;96.80
28193;DHT22;15473;50.840;3.396;2022-07-29T10:25:34;24.20;97.70
28193;DHT22;15473;50.840;3.396;2022-07-29T10:28:22;24.30;96.70
28193;DHT22;15473;50.840;3.396;2022-07-29T10:31:15;24.40;96.20
28193;DHT22;15473;50.840;3.396;2022-07-29T10:34:32;24.60;96.10
28193;DHT22;15473;50.840;3.396;2022-07-29T10:37:22;24.60;96.50
28193;DHT22;15473;50.840;3.396;2022-07-29T10:43:46;24.60;95.20
28193;DHT22;15473;50.840;3.396;2022-07-29T10:46:39;24.70;95.10
28193;DHT22;15473;50.840;3.396;2022-07-29T10:52:53;24.90;96.20
28193;DHT22;15473;50.840;3.396;2022-07-29T10:55:41;24.90;96.20
28193;DHT22;15473;50.840;3.396;2022-07-29T10:58:32;24.90;95.40
28193;DHT22;15473;50.840;3.396;2022-07-29T11:01:29;25.00;95.70
28193;DHT22;15473;50.840;3.396;2022-07-29T11:07:22;25.00;94.60
28193;DHT22;15473;50.840;3.396;2022-07-29T11:13:05;24.90;94.70
28193;DHT22;15473;50.840;3.396;2022-07-29T11:15:58;24.90;95.00
28193;DHT22;15473;50.840;3.396;2022-07-29T11:22:00;24.90;95.40
28193;DHT22;15473;50.840;3.396;2022-07-29T11:25:05;24.90;95.30
28193;DHT22;15473;50.840;3.396;2022-07-29T11:27:36;24.90;95.40
28193;DHT22;15473;50.840;3.396;2022-07-29T11:30:59;24.90;95.70
28193;DHT22;15473;50.840;3.396;2022-07-29T11:33:33;24.80;94.60
28193;DHT22;15473;50.840;3.396;2022-07-29T11:36:19;24.80;94.90
28193;DHT22;15473;50.840;3.396;2022-07-29T11:39:25;24.80;95.10
28193;DHT22;15473;50.840;3.396;2022-07-29T11:45:12;24.60;95.40
28193;DHT22;15473;50.840;3.396;2022-07-29T11:47:59;24.60;94.80
28193;DHT22;15473;50.840;3.396;2022-07-29T11:50:46;24.70;95.00
28193;DHT22;15473;50.840;3.396;2022-07-29T11:53:34;24.80;95.30
28193;DHT22;15473;50.840;3.396;2022-07-29T11:56:21;24.80;95.00
28193;DHT22;15473;50.840;3.396;2022-07-29T11:59:10;24.90;95.40
28193;DHT22;15473;50.840;3.396;2022-07-29T12:01:59;25.00;95.40
28193;DHT22;15473;50.840;3.396;2022-07-29T12:04:51;25.10;93.90
28193;DHT22;15473;50.840;3.396;2022-07-29T12:07:39;25.20;94.40
28193;DHT22;15473;50.840;3.396;2022-07-29T12:10:30;25.20;93.60
28193;DHT22;15473;50.840;3.396;2022-07-29T12:13:18;25.20;93.60
28193;DHT22;15473;50.840;3.396;2022-07-29T12:16:04;25.10;93.40
28193;DHT22;15473;50.840;3.396;2022-07-29T12:19:01;25.00;93.20
28193;DHT22;15473;50.840;3.396;2022-07-29T12:21:50;24.90;94.30
28193;DHT22;15473;50.840;3.396;2022-07-29T12:24:44;24.90;94.30
28193;DHT22;15473;50.840;3.396;2022-07-29T12:27:31;25.00;93.80
28193;DHT22;15473;50.840;3.396;2022-07-29T12:30:17;25.10;93.80
28193;DHT22;15473;50.840;3.396;2022-07-29T12:36:06;25.30;94.30
28193;DHT22;15473;50.840;3.396;2022-07-29T12:38:52;25.40;94.10
28193;DHT22;15473;50.840;3.396;2022-07-29T12:41:39;25.50;93.90
28193;DHT22;15473;50.840;3.396;2022-07-29T12:44:42;25.40;93.70
28193;DHT22;15473;50.840;3.396;2022-07-29T12:47:15;25.40;93.40
28193;DHT22;15473;50.840;3.396;2022-07-29T12:50:13;25.30;93.80
28193;DHT22;15473;50.840;3.396;2022-07-29T12:53:12;25.30;93.50
28193;DHT22;15473;50.840;3.396;2022-07-29T12:55:59;25.30;94.10
28193;DHT22;15473;50.840;3.396;2022-07-29T12:58:47;25.60;93.60
28193;DHT22;15473;50.840;3.396;2022-07-29T13:01:36;25.80;93.20
28193;DHT22;15473;50.840;3.396;2022-07-29T13:04:42;26.00;93.20
28193;DHT22;15473;50.840;3.396;2022-07-29T13:07:30;26.10;92.80
28193;DHT22;15473;50.840;3.396;2022-07-29T13:10:18;25.90;93.30
28193;DHT22;15473;50.840;3.396;2022-07-29T13:13:10;25.80;93.50
28193;DHT22;15473;50.840;3.396;2022-07-29T13:16:07;25.70;93.50
28193;DHT22;15473;50.840;3.396;2022-07-29T13:19:03;25.70;93.40
28193;DHT22;15473;50.840;3.396;2022-07-29T13:21:49;25.70;93.50
28193;DHT22;15473;50.840;3.396;2022-07-29T13:24:47;25.80;93.60
28193;DHT22;15473;50.840;3.396;2022-07-29T13:27:36;25.80;93.40
28193;DHT22;15473;50.840;3.396;2022-07-29T13:30:23;25.70;93.60
28193;DHT22;15473;50.840;3.396;2022-07-29T13:33:09;25.70;93.80
28193;DHT22;15473;50.840;3.396;2022-07-29T13:35:56;25.50;93.60
28193;DHT22;15473;50.840;3.396;2022-07-29T13:38:42;25.40;93.90
28193;DHT22;15473;50.840;3.396;2022-07-29T13:41:29;25.30;94.50
28193;DHT22;15473;50.840;3.396;2022-07-29T13:44:15;25.40;94.80
28193;DHT22;15473;50.840;3.396;2022-07-29T13:47:02;25.50;94.40
28193;DHT22;15473;50.840;3.396;2022-07-29T13:49:48;25.60;94.30
28193;DHT22;15473;50.840;3.396;2022-07-29T13:52:35;25.80;93.80
28193;DHT22;15473;50.840;3.396;2022-07-29T13:55:22;25.90;93.80
28193;DHT22;15473;50.840;3.396;2022-07-29T13:58:09;26.10;94.10
28193;DHT22;15473;50.840;3.396;2022-07-29T14:00:55;26.00;93.30
28193;DHT22;15473;50.840;3.396;2022-07-29T14:03:42;25.90;93.60
28193;DHT22;15473;50.840;3.396;2022-07-29T14:06:28;25.70;93.90
28193;DHT22;15473;50.840;3.396;2022-07-29T14:09:15;25.40;94.00
28193;DHT22;15473;50.840;3.396;2022-07-29T14:12:01;25.20;94.30
28193;DHT22;15473;50.840;3.396;2022-07-29T14:14:48;25.30;94.70
28193;DHT22;15473;50.840;3.396;2022-07-29T14:17:34;25.40;94.80
28193;DHT22;15473;50.840;3.396;2022-07-29T14:20:20;25.70;94.50
28193;DHT22;15473;50.840;3.396;2022-07-29T14:23:06;26.00;94.60
28193;DHT22;15473;50.840;3.396;2022-07-29T14:25:52;26.10;94.60
28193;DHT22;15473;50.840;3.396;2022-07-29T14:28:39;26.10;94.50
28193;DHT22;15473;50.840;3.396;2022-07-29T14:31:24;26.00;94.40
28193;DHT22;15473;50.840;3.396;2022-07-29T14:34:10;25.80;94.20
28193;DHT22;15473;50.840;3.396;2022-07-29T14:36:56;25.60;94.70
28193;DHT22;15473;50.840;3.396;2022-07-29T14:39:43;25.40;94.30
28193;DHT22;15473;50.840;3.396;2022-07-29T14:42:29;25.40;94.40
28193;DHT22;15473;50.840;3.396;2022-07-29T14:45:19;25.50;94.60
28193;DHT22;15473;50.840;3.396;2022-07-29T14:48:06;25.60;94.80
28193;DHT22;15473;50.840;3.396;2022-07-29T14:50:52;25.70;94.80
28193;DHT22;15473;50.840;3.396;2022-07-29T14:53:39;25.60;94.40
28193;DHT22;15473;50.840;3.396;2022-07-29T14:56:28;25.50;94.50
28193;DHT22;15473;50.840;3.396;2022-07-29T14:59:15;25.40;95.10
28193;DHT22;15473;50.840;3.396;2022-07-29T15:02:01;25.40;95.20
28193;DHT22;15473;50.840;3.396;2022-07-29T15:04:48;25.30;95.00
28193;DHT22;15473;50.840;3.396;2022-07-29T15:07:34;25.30;95.30
28193;DHT22;15473;50.840;3.396;2022-07-29T15:10:20;25.30;95.30
28193;DHT22;15473;50.840;3.396;2022-07-29T15:13:07;25.20;95.30
28193;DHT22;15473;50.840;3.396;2022-07-29T15:15:53;25.10;94.80
28193;DHT22;15473;50.840;3.396;2022-07-29T15:18:40;25.00;94.90
28193;DHT22;15473;50.840;3.396;2022-07-29T15:21:27;25.00;94.40
28193;DHT22;15473;50.840;3.396;2022-07-29T15:24:13;25.00;95.30
28193;DHT22;15473;50.840;3.396;2022-07-29T15:26:59;25.00;94.50
28193;DHT22;15473;50.840;3.396;2022-07-29T15:29:46;24.80;94.80
28193;DHT22;15473;50.840;3.396;2022-07-29T15:32:31;24.80;94.30
28193;DHT22;15473;50.840;3.396;2022-07-29T15:35:18;24.80;94.80
28193;DHT22;15473;50.840;3.396;2022-07-29T15:38:04;24.90;94.80
28193;DHT22;15473;50.840;3.396;2022-07-29T15:41:13;25.00;95.40
28193;DHT22;15473;50.840;3.396;2022-07-29T15:43:58;25.00;95.00
28193;DHT22;15473;50.840;3.396;2022-07-29T15:46:44;25.00;95.20
28193;DHT22;15473;50.840;3.396;2022-07-29T15:49:51;24.90;95.50
28193;DHT22;15473;50.840;3.396;2022-07-29T15:52:37;24.90;96.00
28193;DHT22;15473;50.840;3.396;2022-07-29T15:55:23;24.90;96.00
28193;DHT22;15473;50.840;3.396;2022-07-29T15:58:10;24.90;96.40
28193;DHT22;15473;50.840;3.396;2022-07-29T16:00:56;24.80;96.20
28193;DHT22;15473;50.840;3.396;2022-07-29T16:03:42;24.80;96.00
28193;DHT22;15473;50.840;3.396;2022-07-29T16:06:29;24.80;96.10
28193;DHT22;15473;50.840;3.396;2022-07-29T16:09:16;24.70;96.40
28193;DHT22;15473;50.840;3.396;2022-07-29T16:12:03;24.60;96.50
28193;DHT22;15473;50.840;3.396;2022-07-29T16:14:50;24.60;96.60
28193;DHT22;15473;50.840;3.396;2022-07-29T16:17:37;24.60;96.80
28193;DHT22;15473;50.840;3.396;2022-07-29T16:20:24;24.60;96.30
28193;DHT22;15473;50.840;3.396;2022-07-29T16:23:10;24.60;96.00
28193;DHT22;15473;50.840;3.396;2022-07-29T16:25:57;24.50;96.60
28193;DHT22;15473;50.840;3.396;2022-07-29T16:28:43;24.50;96.30
28193;DHT22;15473;50.840;3.396;2022-07-29T16:31:29;24.40;96.60
28193;DHT22;15473;50.840;3.396;2022-07-29T16:34:15;24.40;96.40
28193;DHT22;15473;50.840;3.396;2022-07-29T16:37:02;24.40;96.70
28193;DHT22;15473;50.840;3.396;2022-07-29T16:39:48;24.40;96.40
28193;DHT22;15473;50.840;3.396;2022-07-29T16:42:35;24.40;96.00
28193;DHT22;15473;50.840;3.396;2022-07-29T16:45:21;24.30;96.20
28193;DHT22;15473;50.840;3.396;2022-07-29T16:48:08;24.20;96.10
28193;DHT22;15473;50.840;3.396;2022-07-29T16:50:54;24.20;96.10
28193;DHT22;15473;50.840;3.396;2022-07-29T16:53:40;24.10;96.20
28193;DHT22;15473;50.840;3.396;2022-07-29T16:56:27;24.10;96.40
28193;DHT22;15473;50.840;3.396;2022-07-29T16:59:13;24.00;96.40
28193;DHT22;15473;50.840;3.396;2022-07-29T17:01:59;24.00;96.20
28193;DHT22;15473;50.840;3.396;2022-07-29T17:04:48;23.90;96.60
28193;DHT22;15473;50.840;3.396;2022-07-29T17:07:35;23.90;96.50
28193;DHT22;15473;50.840;3.396;2022-07-29T17:10:21;23.90;96.40
28193;DHT22;15473;50.840;3.396;2022-07-29T17:13:09;23.80;96.10
28193;DHT22;15473;50.840;3.396;2022-07-29T17:15:55;23.80;96.30
28193;DHT22;15473;50.840;3.396;2022-07-29T17:18:41;23.70;96.00
28193;DHT22;15473;50.840;3.396;2022-07-29T17:21:28;23.70;97.00
28193;DHT22;15473;50.840;3.396;2022-07-29T17:24:14;23.70;97.20
28193;DHT22;15473;50.840;3.396;2022-07-29T17:26:59;23.60;97.10
28193;DHT22;15473;50.840;3.396;2022-07-29T17:29:46;23.60;97.60
28193;DHT22;15473;50.840;3.396;2022-07-29T17:32:32;23.50;97.40
28193;DHT22;15473;50.840;3.396;2022-07-29T17:35:20;23.50;97.30
28193;DHT22;15473;50.840;3.396;2022-07-29T17:38:24;23.50;97.60
28193;DHT22;15473;50.840;3.396;2022-07-29T17:41:11;23.40;98.30
28193;DHT22;15473;50.840;3.396;2022-07-29T17:43:57;23.30;98.40
28193;DHT22;15473;50.840;3.396;2022-07-29T17:46:44;23.30;98.50
28193;DHT22;15473;50.840;3.396;2022-07-29T17:49:30;23.20;98.60
28193;DHT22;15473;50.840;3.396;2022-07-29T17:52:17;23.10;98.80
28193;DHT22;15473;50.840;3.396;2022-07-29T17:55:04;23.10;99.00
28193;DHT22;15473;50.840;3.396;2022-07-29T17:57:50;23.00;98.70
28193;DHT22;15473;50.840;3.396;2022-07-29T18:00:36;23.00;98.60
28193;DHT22;15473;50.840;3.396;2022-07-29T18:03:23;23.00;98.90
28193;DHT22;15473;50.840;3.396;2022-07-29T18:06:10;22.90;98.60
28193;DHT22;15473;50.840;3.396;2022-07-29T18:08:56;22.90;98.40
28193;DHT22;15473;50.840;3.396;2022-07-29T18:11:42;22.80;98.30
28193;DHT22;15473;50.840;3.396;2022-07-29T18:14:29;22.80;98.30
28193;DHT22;15473;50.840;3.396;2022-07-29T18:17:15;22.70;98.10